createdAt,value
2019-01-19T00:08:52.384Z,44.48
2019-01-19T00:11:59.826Z,48.40
2019-01-19T00:14:26.256Z,67.95
2019-01-19T00:17:31.790Z,56.45
2019-01-19T00:20:37.837Z,42.78
2019-01-19T00:23:43.533Z,41.60
2019-01-19T00:26:50.961Z,37.93
2019-01-19T00:29:58.582Z,64.27
2019-01-19T00:33:04.260Z,48.83
2019-01-19T00:36:11.687Z,40.15
2019-01-19T00:39:37.112Z,49.70
2019-01-19T00:42:42.633Z,47.45
2019-01-19T00:45:48.168Z,57.15
2019-01-19T00:48:55.634Z,41.02
2019-01-19T00:52:01.159Z,68.60
2019-01-19T00:55:08.619Z,43.68
2019-01-19T01:01:43.120Z,44.42
2019-01-19T01:04:50.562Z,40.17
2019-01-19T01:08:18.721Z,50.75
2019-01-19T01:14:37.945Z,45.48
2019-01-19T01:17:45.364Z,46.80
2019-01-19T01:20:52.796Z,49.42
2019-01-19T01:24:18.206Z,52.03
2019-01-19T01:27:23.754Z,47.75
2019-01-19T01:30:50.921Z,53.87
2019-01-19T01:37:23.520Z,49.03
2019-01-19T01:40:30.980Z,61.80
2019-01-19T01:43:38.394Z,44.45
2019-01-19T01:46:43.932Z,71.15
2019-01-19T01:49:51.356Z,54.38
2019-01-19T01:52:56.892Z,47.67
2019-01-19T01:59:35.936Z,52.67
2019-01-19T02:09:11.099Z,63.48
2019-01-19T02:15:30.568Z,63.87
2019-01-19T02:18:36.112Z,55.60
2019-01-19T02:21:43.552Z,53.75
2019-01-19T02:24:51.021Z,49.35
2019-01-19T02:31:09.936Z,60.73
2019-01-19T02:34:15.472Z,93.97
2019-01-19T02:37:22.915Z,50.67
2019-01-19T02:40:30.343Z,58.73
2019-01-19T02:46:49.963Z,61.20
2019-01-19T02:49:57.426Z,57.25
2019-01-19T02:53:04.858Z,52.78
2019-01-19T02:56:12.287Z,106.58
2019-01-19T03:02:33.102Z,62.00
2019-01-19T03:05:40.531Z,96.65
2019-01-19T03:08:46.055Z,63.90
2019-01-19T03:12:11.465Z,72.12
2019-01-19T03:15:16.998Z,72.10
2019-01-19T03:18:42.423Z,92.25
2019-01-19T03:25:16.900Z,75.70
2019-01-19T03:28:22.439Z,66.97
2019-01-19T03:31:47.865Z,95.17
2019-01-19T03:34:55.307Z,69.42
2019-01-19T03:38:20.733Z,64.82
2019-01-19T03:41:28.154Z,52.80
2019-01-19T03:44:35.608Z,53.42
2019-01-19T03:48:01.033Z,58.85
2019-01-19T03:51:08.555Z,51.15
2019-01-19T03:54:15.999Z,54.20
2019-01-19T03:57:21.522Z,47.00
2019-01-19T04:00:28.976Z,48.23
2019-01-19T04:03:34.497Z,60.85
2019-01-19T04:06:40.032Z,56.15
2019-01-19T04:13:01.458Z,79.75
2019-01-19T04:16:08.898Z,50.15
2019-01-19T04:19:14.415Z,50.83
2019-01-19T04:22:21.863Z,52.60
2019-01-19T04:30:39.967Z,54.20
2019-01-19T04:33:05.722Z,55.37
2019-01-19T04:35:31.489Z,46.67
2019-01-19T04:37:57.233Z,49.13
2019-01-19T04:40:22.994Z,51.50
2019-01-19T04:42:48.872Z,43.70
2019-01-19T04:45:14.723Z,49.20
2019-01-19T04:47:40.497Z,55.67
2019-01-19T04:50:48.154Z,46.87
2019-01-19T04:53:14.356Z,49.67
2019-01-19T04:55:40.378Z,44.50
2019-01-19T04:58:06.140Z,48.10
2019-01-19T05:00:31.894Z,45.30
2019-01-19T05:02:57.663Z,44.27
2019-01-19T05:05:23.421Z,46.20
2019-01-19T05:07:49.193Z,40.47
2019-01-19T05:10:14.944Z,43.00
2019-01-19T05:12:40.722Z,43.00
2019-01-19T05:15:26.356Z,42.93
2019-01-19T05:20:30.246Z,35.38
2019-01-19T05:22:56.013Z,40.03
2019-01-19T05:25:21.767Z,37.50
2019-01-19T05:27:47.540Z,41.20
2019-01-19T05:30:33.186Z,40.80
2019-01-19T05:32:58.966Z,36.75
2019-01-19T05:35:24.710Z,39.40
2019-01-19T05:37:50.484Z,38.47
2019-01-19T05:40:16.235Z,38.00
2019-01-19T05:42:42.007Z,35.37
2019-01-19T05:45:49.441Z,32.33
2019-01-19T05:48:15.217Z,34.30
2019-01-19T05:50:40.972Z,34.43
2019-01-19T05:53:06.741Z,38.33
2019-01-19T05:55:32.502Z,37.63
2019-01-19T05:57:58.278Z,37.23
2019-01-19T06:03:51.185Z,32.28
2019-01-19T06:06:17.038Z,33.70
2019-01-19T06:08:42.807Z,31.07
2019-01-19T06:11:08.566Z,32.53
2019-01-19T06:13:34.346Z,31.97
2019-01-19T06:16:00.108Z,31.67
2019-01-19T06:20:59.547Z,34.10
2019-01-19T06:23:25.349Z,29.83
2019-01-19T06:25:51.099Z,32.53
2019-01-19T06:28:16.866Z,28.77
2019-01-19T06:30:42.651Z,29.23
2019-01-19T06:33:08.415Z,30.53
2019-01-19T06:35:34.187Z,29.40
2019-01-19T06:37:59.952Z,27.13
2019-01-19T06:40:25.724Z,30.33
2019-01-19T06:42:51.479Z,26.43
2019-01-19T06:45:58.931Z,28.60
2019-01-19T06:48:24.690Z,26.65
2019-01-19T06:50:50.472Z,27.57
2019-01-19T06:53:16.249Z,26.47
2019-01-19T06:55:42.019Z,29.13
2019-01-19T06:58:07.773Z,25.50
2019-01-19T07:00:33.539Z,23.77
2019-01-19T07:02:59.295Z,26.10
2019-01-19T07:05:25.066Z,26.67
2019-01-19T07:07:50.829Z,26.43
2019-01-19T07:13:30.241Z,27.13
2019-01-19T07:15:56.001Z,23.27
2019-01-19T07:18:21.774Z,25.23
2019-01-19T07:20:47.542Z,24.33
2019-01-19T07:23:13.304Z,25.20
2019-01-19T07:25:39.082Z,22.30
2019-01-19T07:28:04.838Z,25.63
2019-01-19T07:30:30.628Z,23.03
2019-01-19T07:32:56.391Z,24.67
2019-01-19T07:35:22.173Z,25.37
2019-01-19T07:37:47.933Z,25.17
2019-01-19T07:40:55.381Z,23.53
2019-01-19T07:48:42.069Z,24.07
2019-01-19T07:51:07.828Z,24.70
2019-01-19T07:53:33.581Z,21.43
2019-01-19T07:55:59.359Z,22.27
2019-01-19T07:58:25.118Z,24.83
2019-01-19T08:00:51.001Z,23.23
2019-01-19T08:03:16.868Z,21.90
2019-01-19T08:05:42.634Z,21.80
2019-01-19T08:08:08.402Z,21.80
2019-01-19T08:10:34.273Z,21.83
2019-01-19T08:13:00.027Z,25.33
2019-01-19T08:16:07.490Z,24.63
2019-01-19T08:18:33.300Z,25.15
2019-01-19T08:20:59.021Z,27.10
2019-01-19T08:23:26.196Z,25.63
2019-01-19T08:25:52.453Z,26.20
2019-01-19T08:28:18.217Z,28.43
2019-01-19T08:30:44.001Z,28.13
2019-01-19T08:33:09.772Z,28.43
2019-01-19T08:38:09.489Z,24.67
2019-01-19T08:40:35.310Z,26.60
2019-01-19T08:45:48.335Z,23.30
2019-01-19T08:51:01.515Z,24.00
2019-01-19T08:53:27.258Z,25.17
2019-01-19T08:55:53.054Z,26.93
2019-01-19T08:58:18.798Z,24.03
2019-01-19T09:00:44.562Z,22.93
2019-01-19T09:03:10.791Z,25.47
2019-01-19T09:05:36.539Z,24.57
2019-01-19T09:08:02.535Z,23.20
2019-01-19T09:10:28.297Z,25.60
2019-01-19T09:12:54.667Z,25.30
2019-01-19T09:16:03.443Z,25.60
2019-01-19T09:18:29.202Z,25.08
2019-01-19T09:20:54.961Z,24.33
2019-01-19T09:23:40.642Z,25.97
2019-01-19T09:26:06.416Z,23.87
2019-01-19T09:28:32.816Z,24.97
2019-01-19T09:30:59.843Z,24.92
2019-01-19T09:33:25.613Z,23.80
2019-01-19T09:35:51.370Z,24.23
2019-01-19T09:38:17.143Z,23.90
2019-01-19T09:40:42.900Z,24.73
2019-01-19T09:43:08.683Z,23.87
2019-01-19T09:45:34.433Z,25.97
2019-01-19T09:48:00.204Z,25.73
2019-01-19T09:50:26.004Z,26.57
2019-01-19T09:52:51.738Z,23.63
2019-01-19T09:55:17.486Z,25.27
2019-01-19T09:57:43.359Z,24.57
2019-01-19T10:00:50.797Z,25.40
2019-01-19T10:03:16.563Z,24.47
2019-01-19T10:05:42.319Z,24.47
2019-01-19T10:08:08.086Z,26.23
2019-01-19T10:10:33.850Z,25.27
2019-01-19T10:12:59.625Z,26.13
2019-01-19T10:15:25.387Z,24.93
2019-01-19T10:17:51.161Z,24.63
2019-01-19T10:20:36.812Z,23.93
2019-01-19T10:23:02.681Z,24.70
2019-01-19T10:25:28.446Z,23.23
2019-01-19T10:27:54.210Z,25.50
2019-01-19T10:30:39.875Z,24.47
2019-01-19T10:35:39.101Z,23.35
2019-01-19T10:40:58.376Z,23.70
2019-01-19T10:43:24.133Z,24.47
2019-01-19T10:45:49.887Z,23.40
2019-01-19T10:48:15.741Z,22.50
2019-01-19T10:50:41.517Z,23.60
2019-01-19T10:53:07.277Z,21.37
2019-01-19T10:55:33.049Z,23.57
2019-01-19T10:57:58.822Z,22.33
2019-01-19T11:01:06.312Z,24.03
2019-01-19T11:03:32.054Z,22.45
2019-01-19T11:05:57.958Z,23.63
2019-01-19T11:08:24.080Z,23.47
2019-01-19T11:10:51.652Z,24.40
2019-01-19T11:13:17.400Z,23.73
2019-01-19T11:15:43.997Z,23.43
2019-01-19T11:18:09.832Z,23.25
2019-01-19T11:20:35.616Z,22.37
2019-01-19T11:23:01.400Z,22.23
2019-01-19T11:26:08.911Z,22.97
2019-01-19T11:28:34.656Z,22.82
2019-01-19T11:31:00.419Z,23.13
2019-01-19T11:33:26.201Z,21.73
2019-01-19T11:35:51.968Z,20.73
2019-01-19T11:38:20.243Z,21.23
2019-01-19T11:40:45.413Z,21.20
2019-01-19T11:43:11.432Z,21.63
2019-01-19T11:45:58.995Z,20.57
2019-01-19T11:48:26.643Z,20.95
2019-01-19T11:50:52.435Z,21.37
2019-01-19T11:53:18.174Z,22.00
2019-01-19T11:55:43.957Z,18.90
2019-01-19T11:58:09.703Z,19.77
2019-01-19T12:01:17.194Z,20.50
2019-01-19T12:03:42.943Z,20.12
2019-01-19T12:06:09.500Z,19.73
2019-01-19T12:08:35.271Z,19.37
2019-01-19T12:11:01.022Z,20.17
2019-01-19T12:13:26.781Z,18.87
2019-01-19T12:15:52.533Z,17.20
2019-01-19T12:18:18.320Z,16.73
2019-01-19T12:20:44.081Z,18.60
2019-01-19T12:23:09.880Z,16.70
2019-01-19T12:28:42.951Z,16.48
2019-01-19T12:31:08.722Z,17.47
2019-01-19T12:33:34.506Z,17.37
2019-01-19T12:36:00.365Z,16.10
2019-01-19T12:38:26.843Z,17.30
2019-01-19T12:40:53.805Z,17.02
2019-01-19T12:43:19.565Z,15.77
2019-01-19T12:46:27.015Z,17.63
2019-01-19T12:48:52.779Z,17.45
2019-01-19T12:51:18.660Z,17.77
2019-01-19T12:53:44.394Z,17.40
2019-01-19T12:56:10.166Z,16.90
2019-01-19T12:58:35.961Z,15.03
2019-01-19T13:01:01.741Z,14.73
2019-01-19T13:03:27.514Z,15.10
2019-01-19T13:06:34.944Z,14.83
2019-01-19T13:09:00.722Z,15.40
2019-01-19T13:12:06.242Z,15.27
2019-01-19T13:15:13.706Z,14.45
2019-01-19T13:18:21.175Z,14.40
2019-01-19T13:21:26.719Z,13.45
2019-01-19T13:24:34.164Z,14.63
2019-01-19T13:27:41.597Z,14.40
2019-01-19T13:30:47.142Z,13.83
2019-01-19T13:33:54.598Z,13.22
2019-01-19T13:37:02.069Z,13.30
2019-01-19T13:40:09.518Z,13.85
2019-01-19T13:43:15.044Z,13.43
2019-01-19T13:46:22.493Z,12.58
2019-01-19T13:49:29.951Z,12.78
2019-01-19T13:52:37.396Z,13.15
2019-01-19T13:56:02.818Z,13.83
2019-01-19T13:59:10.249Z,14.45
2019-01-19T14:02:19.320Z,12.13
2019-01-19T14:05:27.073Z,11.85
2019-01-19T14:08:34.501Z,11.97
2019-01-19T14:11:59.932Z,12.43
2019-01-19T14:15:07.363Z,14.55
2019-01-19T14:18:12.908Z,12.78
2019-01-19T14:21:18.455Z,13.13
2019-01-19T14:24:25.883Z,13.30
2019-01-19T14:27:33.325Z,13.80
2019-01-19T14:30:38.855Z,14.53
2019-01-19T14:33:46.320Z,14.28
2019-01-19T14:36:51.961Z,14.33
2019-01-19T14:39:57.485Z,14.28
2019-01-19T14:43:03.017Z,13.83
2019-01-19T14:46:08.542Z,14.28
2019-01-19T14:49:15.998Z,13.65
2019-01-19T14:52:21.579Z,13.40
2019-01-19T14:55:27.103Z,14.73
2019-01-19T14:58:34.549Z,14.15
2019-01-19T15:11:33.955Z,14.73
2019-01-19T15:14:39.591Z,15.25
2019-01-19T15:17:47.018Z,15.58
2019-01-19T15:20:52.570Z,16.35
2019-01-19T15:24:00.006Z,15.53
2019-01-19T15:30:34.507Z,15.88
2019-01-19T15:33:41.968Z,16.10
2019-01-19T15:36:49.398Z,16.35
2019-01-19T15:39:56.855Z,15.63
2019-01-19T15:43:02.373Z,16.48
2019-01-19T15:46:09.815Z,17.80
2019-01-19T15:52:30.409Z,17.37
2019-01-19T15:55:37.854Z,16.87
2019-01-19T15:58:45.303Z,17.10
2019-01-19T16:01:50.825Z,17.10
2019-01-19T16:04:56.391Z,19.75
2019-01-19T16:08:03.808Z,19.87
2019-01-19T16:11:09.347Z,19.73
2019-01-19T16:14:16.828Z,21.05
2019-01-19T16:17:24.264Z,21.25
2019-01-19T16:20:49.684Z,23.90
2019-01-19T16:23:57.123Z,25.72
2019-01-19T16:27:22.532Z,29.05
2019-01-19T16:30:28.115Z,32.35
2019-01-19T16:33:53.486Z,28.30
2019-01-19T16:36:59.034Z,22.77
2019-01-19T16:40:04.557Z,23.45
2019-01-19T16:43:10.101Z,22.40
2019-01-19T16:46:17.539Z,21.15
2019-01-19T16:49:24.961Z,23.35
2019-01-19T16:52:50.393Z,32.80
2019-01-19T16:59:09.484Z,24.07
2019-01-19T17:02:16.924Z,27.10
2019-01-19T17:05:42.327Z,29.23
2019-01-19T17:12:01.133Z,27.90
2019-01-19T17:15:08.569Z,27.15
2019-01-19T17:18:14.098Z,26.12
2019-01-19T17:21:39.505Z,28.73
2019-01-19T17:25:04.919Z,30.12
2019-01-19T17:28:10.453Z,27.30
2019-01-19T17:31:15.973Z,27.15
2019-01-19T17:37:22.635Z,24.75
2019-01-19T17:40:28.360Z,25.08
2019-01-19T17:43:35.810Z,25.97
2019-01-19T17:46:41.331Z,27.58
2019-01-19T17:49:49.176Z,29.70
2019-01-19T17:52:56.645Z,27.27
2019-01-19T17:56:02.359Z,27.07
2019-01-19T17:59:09.801Z,23.57
2019-01-19T18:02:15.621Z,23.22
2019-01-19T18:05:23.069Z,21.07
2019-01-19T18:08:28.622Z,27.07
2019-01-19T18:11:37.242Z,25.68
2019-01-19T18:17:56.681Z,23.95
2019-01-19T18:21:04.135Z,21.37
2019-01-19T18:24:10.788Z,21.05
2019-01-19T18:27:36.154Z,20.68
2019-01-19T18:30:42.661Z,20.85
2019-01-19T18:34:08.175Z,24.30
2019-01-19T18:43:40.620Z,32.35
2019-01-19T18:46:46.183Z,31.93
2019-01-19T18:49:51.716Z,31.80
2019-01-19T18:53:01.954Z,31.62
2019-01-19T18:56:09.406Z,30.82
2019-01-19T18:59:14.944Z,31.10
2019-01-19T19:02:20.454Z,31.23
2019-01-19T19:05:25.993Z,32.10
2019-01-19T19:08:33.443Z,31.23
2019-01-19T19:11:40.903Z,30.10
2019-01-19T19:14:48.331Z,28.75
2019-01-19T19:21:07.122Z,30.68
2019-01-19T19:24:14.559Z,32.25
2019-01-19T19:27:20.113Z,31.52
2019-01-19T19:30:45.755Z,31.48
2019-01-19T19:33:53.255Z,32.45
2019-01-19T19:36:58.786Z,32.88
2019-01-19T19:40:09.973Z,34.92
2019-01-19T19:43:13.655Z,32.08
2019-01-19T19:46:39.076Z,34.38
2019-01-19T19:49:46.516Z,32.98
2019-01-19T19:52:12.286Z,34.90
2019-01-19T19:54:38.052Z,33.03
2019-01-19T19:57:03.913Z,32.37
2019-01-19T19:59:29.697Z,31.73
2019-01-19T20:01:55.469Z,32.27
2019-01-19T20:04:21.234Z,30.97
2019-01-19T20:07:28.674Z,31.43
2019-01-19T20:09:54.435Z,30.57
2019-01-19T20:12:20.201Z,29.00
2019-01-19T20:14:45.974Z,29.07
2019-01-19T20:17:11.730Z,29.40
2019-01-19T20:19:37.511Z,28.03
2019-01-19T20:22:03.364Z,31.20
2019-01-19T20:24:29.154Z,30.83
2019-01-19T20:26:54.919Z,30.60
2019-01-19T20:29:20.715Z,31.40
2019-01-19T20:31:46.481Z,31.53
2019-01-19T20:34:12.254Z,31.27
2019-01-19T20:36:38.022Z,33.20
2019-01-19T20:39:45.476Z,57.93
2019-01-19T20:42:11.224Z,58.15
2019-01-19T20:44:37.003Z,40.07
2019-01-19T20:47:44.437Z,35.57
2019-01-19T20:50:51.881Z,32.10
2019-01-19T20:53:17.633Z,32.70
2019-01-19T20:55:43.406Z,34.13
2019-01-19T20:58:09.166Z,33.57
2019-01-19T21:00:34.950Z,34.00
2019-01-19T21:03:00.702Z,34.77
2019-01-19T21:05:46.376Z,35.17
2019-01-19T21:08:12.128Z,37.20
2019-01-19T21:10:37.913Z,35.70
2019-01-19T21:13:03.668Z,37.73
2019-01-19T21:15:29.435Z,36.77
2019-01-19T21:17:55.836Z,37.87
2019-01-19T21:20:22.876Z,38.00
2019-01-19T21:22:48.634Z,40.53
2019-01-19T21:25:14.423Z,40.17
2019-01-19T21:31:07.298Z,39.48
2019-01-19T21:33:33.042Z,40.37
2019-01-19T21:35:58.813Z,41.33
2019-01-19T21:38:24.600Z,42.17
2019-01-19T21:40:50.380Z,42.30
2019-01-19T21:43:16.136Z,41.67
2019-01-19T21:45:41.912Z,42.70
2019-01-19T21:48:07.673Z,42.70
2019-01-19T21:50:33.457Z,46.53
2019-01-19T21:52:59.229Z,47.93
2019-01-19T21:55:25.006Z,47.90
2019-01-19T21:57:50.761Z,47.70
2019-01-19T22:00:38.320Z,45.67
2019-01-19T22:03:04.085Z,46.53
2019-01-19T22:05:31.105Z,47.80
2019-01-19T22:07:57.514Z,54.58
2019-01-19T22:13:10.614Z,48.40
2019-01-19T22:15:36.359Z,44.93
2019-01-19T22:18:02.147Z,43.00
2019-01-19T22:20:27.905Z,43.23
2019-01-19T22:22:53.697Z,41.00
2019-01-19T22:25:19.445Z,41.80
2019-01-19T22:30:23.312Z,40.45
2019-01-19T22:37:56.662Z,40.03
2019-01-19T22:40:22.426Z,40.93
2019-01-19T22:46:01.526Z,37.38
2019-01-19T22:48:34.766Z,36.98
2019-01-19T22:51:00.517Z,36.80
2019-01-19T22:53:26.280Z,36.70
2019-01-19T22:55:52.044Z,35.30
2019-01-19T22:58:17.812Z,34.47
2019-01-19T23:01:23.336Z,36.33
2019-01-19T23:03:49.108Z,32.75
2019-01-19T23:06:14.869Z,32.90
2019-01-19T23:08:40.649Z,32.77
2019-01-19T23:11:06.400Z,32.10
2019-01-19T23:13:32.180Z,32.73
2019-01-19T23:15:57.937Z,32.27
2019-01-19T23:18:23.713Z,31.67
2019-01-19T23:20:49.470Z,34.97
2019-01-19T23:23:15.250Z,34.77
2019-01-19T23:25:41.005Z,34.67
2019-01-19T23:28:06.796Z,33.90
2019-01-19T23:30:32.655Z,32.17
2019-01-19T23:32:58.481Z,31.23
2019-01-19T23:35:24.270Z,33.50
2019-01-19T23:38:03.148Z,31.77
2019-01-19T23:40:17.696Z,31.97
2019-01-19T23:42:47.421Z,31.53
2019-01-19T23:45:11.388Z,31.12
2019-01-19T23:47:37.143Z,33.65
2019-01-19T23:53:16.723Z,30.08
2019-01-19T23:55:42.470Z,30.70
2019-01-19T23:58:08.245Z,34.40
